createdAt,value
2022-08-21T00:01:52.275Z,1297.37
2022-08-21T00:04:22.150Z,1281.05
2022-08-21T00:06:50.277Z,1274.63
2022-08-21T00:09:18.315Z,1265.63
2022-08-21T00:11:45.229Z,1254.25
2022-08-21T00:14:14.017Z,1242.85
2022-08-21T00:16:41.553Z,1280.18
2022-08-21T00:19:09.383Z,1274.97
2022-08-21T00:21:36.661Z,1264.43
2022-08-21T00:24:03.914Z,1276.60
2022-08-21T00:26:30.797Z,1274.95
2022-08-21T00:28:57.509Z,1277.13
2022-08-21T00:31:26.047Z,1260.30
2022-08-21T00:33:52.896Z,1262.93
2022-08-21T00:36:27.315Z,1261.35
2022-08-21T00:38:54.086Z,1254.30
2022-08-21T00:41:38.275Z,1275.32
2022-08-21T00:44:08.850Z,1271.80
2022-08-21T00:46:36.699Z,1272.38
2022-08-21T00:49:04.890Z,1273.70
2022-08-21T00:51:58.994Z,1259.38
2022-08-21T00:54:29.983Z,1257.27
2022-08-21T00:57:10.062Z,1257.13
2022-08-21T00:59:39.236Z,1264.90
2022-08-21T01:02:08.271Z,1253.78
2022-08-21T01:04:35.587Z,1260.05
2022-08-21T01:07:03.415Z,1268.65
2022-08-21T01:09:30.173Z,1238.20
2022-08-21T01:11:57.000Z,1254.37
2022-08-21T01:14:23.891Z,1246.97
2022-08-21T01:16:53.666Z,1241.13
2022-08-21T01:19:21.758Z,1254.73
2022-08-21T01:21:49.017Z,1247.97
2022-08-21T01:24:16.078Z,1270.10
2022-08-21T01:26:43.952Z,1266.75
2022-08-21T01:29:29.575Z,1263.15
2022-08-21T01:31:56.358Z,1272.68
2022-08-21T01:34:23.380Z,1283.03
2022-08-21T01:36:50.381Z,1299.55
2022-08-21T01:39:17.413Z,1284.88
2022-08-21T01:41:44.520Z,1281.85
2022-08-21T01:44:11.578Z,1263.90
2022-08-21T01:46:38.430Z,1269.70
2022-08-21T01:49:06.472Z,1265.82
2022-08-21T01:51:33.565Z,1273.32
2022-08-21T01:54:00.940Z,1241.72
2022-08-21T01:56:28.955Z,1260.53
2022-08-21T01:58:56.108Z,1246.90
2022-08-21T02:01:22.909Z,1245.53
2022-08-21T02:03:49.807Z,1232.22
2022-08-21T02:06:18.784Z,1230.00
2022-08-21T02:08:47.202Z,1228.07
2022-08-21T02:11:14.347Z,1243.13
2022-08-21T02:13:41.503Z,1245.32
2022-08-21T02:16:08.841Z,1221.35
2022-08-21T02:18:36.419Z,1221.22
2022-08-21T02:21:04.848Z,1218.93
2022-08-21T02:23:32.190Z,1230.50
2022-08-21T02:26:00.243Z,1248.85
2022-08-21T02:28:27.621Z,1254.68
2022-08-21T02:30:55.221Z,1261.20
2022-08-21T02:33:23.472Z,1253.70
2022-08-21T02:35:50.822Z,1251.50
2022-08-21T02:38:23.680Z,1252.25
2022-08-21T02:40:52.034Z,1262.75
2022-08-21T02:43:21.355Z,1257.40
2022-08-21T02:45:49.219Z,1264.78
2022-08-21T02:48:19.800Z,1280.15
2022-08-21T02:50:52.309Z,1258.20
2022-08-21T02:53:20.784Z,1246.30
2022-08-21T02:55:50.415Z,1238.88
2022-08-21T02:58:22.025Z,1243.38
2022-08-21T03:00:48.730Z,1243.60
2022-08-21T03:03:15.666Z,1241.30
2022-08-21T03:05:43.585Z,1257.73
2022-08-21T03:08:13.169Z,1246.97
2022-08-21T03:10:42.553Z,1252.50
2022-08-21T03:13:09.755Z,1249.95
2022-08-21T03:15:36.953Z,1251.13
2022-08-21T03:18:06.010Z,1228.80
2022-08-21T03:20:34.158Z,1247.83
2022-08-21T03:23:02.460Z,1238.88
2022-08-21T03:25:40.506Z,1242.68
2022-08-21T03:28:13.360Z,1231.47
2022-08-21T03:30:45.159Z,1227.65
2022-08-21T03:33:15.573Z,1225.28
2022-08-21T03:35:45.134Z,1230.43
2022-08-21T03:38:13.776Z,1232.88
2022-08-21T03:40:41.158Z,1229.82
2022-08-21T03:43:09.993Z,1235.07
2022-08-21T03:45:37.014Z,1231.70
2022-08-21T03:48:05.823Z,1230.40
2022-08-21T03:50:35.115Z,1225.53
2022-08-21T03:53:16.618Z,1214.65
2022-08-21T03:55:47.781Z,1210.70
2022-08-21T03:58:17.726Z,1218.13
2022-08-21T04:00:50.438Z,1207.05
2022-08-21T04:03:17.931Z,1214.97
2022-08-21T04:05:46.483Z,1215.18
2022-08-21T04:08:14.785Z,1216.25
2022-08-21T04:10:44.130Z,1217.80
2022-08-21T04:13:10.907Z,1216.35
2022-08-21T04:15:37.841Z,1205.22
2022-08-21T04:18:05.485Z,1196.78
2022-08-21T04:20:32.246Z,1208.18
2022-08-21T04:22:59.174Z,1217.00
2022-08-21T04:25:28.828Z,1224.65
2022-08-21T04:27:56.039Z,1216.07
2022-08-21T04:30:28.447Z,1226.05
2022-08-21T04:32:56.945Z,1235.05
2022-08-21T04:35:24.998Z,1233.63
2022-08-21T04:37:52.026Z,1237.63
2022-08-21T04:40:20.860Z,1233.10
2022-08-21T04:42:50.627Z,1236.10
2022-08-21T04:45:22.149Z,1249.93
2022-08-21T04:47:57.419Z,1245.15
2022-08-21T04:50:48.750Z,1233.90
2022-08-21T04:53:21.083Z,1240.93
2022-08-21T04:55:48.848Z,1240.17
2022-08-21T04:58:20.013Z,1247.28
2022-08-21T05:00:47.941Z,1250.40
2022-08-21T05:03:17.440Z,1260.05
2022-08-21T05:05:44.469Z,1255.18
2022-08-21T05:08:15.378Z,1259.13
2022-08-21T05:10:43.339Z,1267.47
2022-08-21T05:13:10.843Z,1261.00
2022-08-21T05:15:38.327Z,1273.40
2022-08-21T05:18:05.413Z,1269.38
2022-08-21T05:20:32.290Z,1264.90
2022-08-21T05:22:59.121Z,1273.32
2022-08-21T05:25:26.098Z,1270.45
2022-08-21T05:27:55.085Z,1265.03
2022-08-21T05:30:24.860Z,1274.78
2022-08-21T05:33:00.937Z,1271.20
2022-08-21T05:35:29.831Z,1269.57
2022-08-21T05:37:57.649Z,1279.63
2022-08-21T05:40:24.861Z,1281.60
2022-08-21T05:42:54.486Z,1290.05
2022-08-21T05:45:41.578Z,1293.13
2022-08-21T05:48:10.257Z,1290.00
2022-08-21T05:50:38.785Z,1292.70
2022-08-21T05:53:07.516Z,1290.60
2022-08-21T05:55:34.733Z,1291.30
2022-08-21T05:58:01.605Z,1303.73
2022-08-21T06:00:28.468Z,1311.63
2022-08-21T06:02:55.312Z,1313.47
2022-08-21T06:05:33.451Z,1314.80
2022-08-21T06:08:04.692Z,1314.00
2022-08-21T06:10:31.426Z,1321.82
2022-08-21T06:12:58.277Z,1305.40
2022-08-21T06:15:25.164Z,1306.03
2022-08-21T06:17:53.032Z,1318.20
2022-08-21T06:20:20.335Z,1323.25
2022-08-21T06:22:47.034Z,1321.32
2022-08-21T06:25:13.769Z,1318.32
2022-08-21T06:27:40.603Z,1308.95
2022-08-21T06:30:08.397Z,1307.53
2022-08-21T06:32:35.938Z,1301.07
2022-08-21T06:35:02.742Z,1301.07
2022-08-21T06:37:30.115Z,1292.25
2022-08-21T06:39:56.978Z,1307.30
2022-08-21T06:42:28.074Z,1298.70
2022-08-21T06:44:54.963Z,1312.68
2022-08-21T06:47:21.701Z,1302.47
2022-08-21T06:49:48.386Z,1302.40
2022-08-21T06:52:16.311Z,1305.45
2022-08-21T06:54:43.244Z,1300.07
2022-08-21T06:57:10.297Z,1316.35
2022-08-21T06:59:37.102Z,1310.03
2022-08-21T07:02:04.539Z,1318.85
2022-08-21T07:04:31.559Z,1322.70
2022-08-21T07:06:58.308Z,1323.38
2022-08-21T07:09:25.166Z,1320.20
2022-08-21T07:11:54.988Z,1338.60
2022-08-21T07:14:22.331Z,1336.57
2022-08-21T07:16:51.666Z,1343.93
2022-08-21T07:19:18.807Z,1333.10
2022-08-21T07:21:46.019Z,1334.18
2022-08-21T07:24:12.959Z,1331.47
2022-08-21T07:26:39.805Z,1334.68
2022-08-21T07:29:06.589Z,1339.43
2022-08-21T07:31:33.399Z,1342.15
2022-08-21T07:34:00.195Z,1332.50
2022-08-21T07:36:27.044Z,1332.32
2022-08-21T07:38:54.068Z,1337.57
2022-08-21T07:41:27.423Z,1345.43
2022-08-21T07:43:54.162Z,1346.47
2022-08-21T07:46:21.519Z,1336.77
2022-08-21T07:48:48.325Z,1337.53
2022-08-21T07:51:17.534Z,1341.30
2022-08-21T07:53:50.464Z,1334.25
2022-08-21T07:56:17.697Z,1337.85
2022-08-21T07:58:47.244Z,1346.47
2022-08-21T08:01:14.657Z,1347.68
2022-08-21T08:03:41.948Z,1341.63
2022-08-21T08:06:13.104Z,1336.00
2022-08-21T08:08:41.590Z,1337.22
2022-08-21T08:11:11.717Z,1335.63
2022-08-21T08:13:44.736Z,1337.15
2022-08-21T08:16:11.626Z,1342.07
2022-08-21T08:18:38.619Z,1333.30
2022-08-21T08:21:06.375Z,1331.90
2022-08-21T08:23:33.958Z,1330.67
2022-08-21T08:26:03.413Z,1326.97
2022-08-21T08:28:32.666Z,1302.60
2022-08-21T08:31:01.117Z,1314.75
2022-08-21T08:33:28.508Z,1309.47
2022-08-21T08:35:55.371Z,1310.13
2022-08-21T08:38:24.723Z,1319.53
2022-08-21T08:40:57.262Z,1328.30
2022-08-21T08:43:24.198Z,1320.18
2022-08-21T08:45:53.044Z,1324.90
2022-08-21T08:48:53.098Z,1313.88
2022-08-21T08:52:00.580Z,1330.87
2022-08-21T08:54:56.496Z,1326.90
2022-08-21T08:57:25.486Z,1316.43
2022-08-21T08:59:56.457Z,1319.22
2022-08-21T09:02:28.666Z,1303.70
2022-08-21T09:04:56.509Z,1302.22
2022-08-21T09:07:40.538Z,1315.75
2022-08-21T09:10:08.448Z,1309.57
2022-08-21T09:12:55.802Z,1321.35
2022-08-21T09:15:57.112Z,1304.53
2022-08-21T09:18:54.594Z,1309.38
2022-08-21T09:21:49.070Z,1314.95
2022-08-21T09:25:03.818Z,1304.45
2022-08-21T09:27:32.534Z,1308.78
2022-08-21T09:29:59.603Z,1308.80
2022-08-21T09:32:36.683Z,1301.90
2022-08-21T09:35:15.085Z,1303.80
2022-08-21T09:37:50.399Z,1304.22
2022-08-21T09:40:38.802Z,1313.38
2022-08-21T09:43:19.775Z,1326.10
2022-08-21T09:45:48.412Z,1307.28
2022-08-21T09:48:27.068Z,1320.20
2022-08-21T09:51:17.568Z,1316.63
2022-08-21T09:53:48.823Z,1319.00
2022-08-21T09:56:45.792Z,1326.65
2022-08-21T09:59:36.512Z,1328.18
2022-08-21T10:02:20.844Z,1327.80
2022-08-21T10:05:03.571Z,1368.80
2022-08-21T10:07:32.952Z,1351.32
2022-08-21T10:10:15.675Z,1365.35
2022-08-21T10:13:09.568Z,1369.03
2022-08-21T10:16:01.223Z,1366.17
2022-08-21T10:18:40.081Z,1361.35
2022-08-21T10:21:13.479Z,1349.60
2022-08-21T10:23:55.454Z,1359.40
2022-08-21T10:26:27.997Z,1342.07
2022-08-21T10:29:06.641Z,1376.63
2022-08-21T10:32:17.311Z,1352.65
2022-08-21T10:35:15.082Z,1351.37
2022-08-21T10:38:46.330Z,1353.25
2022-08-21T10:41:07.994Z,1358.50
2022-08-21T10:43:55.424Z,1355.07
2022-08-21T10:46:50.957Z,1342.10
2022-08-21T10:49:22.033Z,1353.07
2022-08-21T10:52:19.956Z,1359.25
2022-08-21T10:55:13.677Z,1368.32
2022-08-21T10:57:51.839Z,1374.32
2022-08-21T11:00:23.337Z,1359.00
2022-08-21T11:03:05.296Z,1378.13
2022-08-21T11:05:55.612Z,1390.55
2022-08-21T11:08:39.086Z,1393.22
2022-08-21T11:11:13.775Z,1401.75
2022-08-21T11:13:55.068Z,1392.68
2022-08-21T11:16:50.004Z,1393.88
2022-08-21T11:19:34.273Z,1397.72
2022-08-21T11:22:24.725Z,1398.17
2022-08-21T11:25:09.415Z,1385.65
2022-08-21T11:27:43.133Z,1386.30
2022-08-21T11:30:10.942Z,1383.57
2022-08-21T11:32:58.713Z,1373.87
2022-08-21T11:36:05.124Z,1363.97
2022-08-21T11:38:41.175Z,1370.68
2022-08-21T11:41:31.246Z,1374.00
2022-08-21T11:44:05.319Z,1394.25
2022-08-21T11:46:41.235Z,1390.37
2022-08-21T11:49:29.099Z,1388.88
2022-08-21T11:52:14.597Z,1379.40
2022-08-21T11:55:01.654Z,1382.60
2022-08-21T11:57:42.808Z,1397.20
2022-08-21T12:00:30.309Z,1414.22
2022-08-21T12:03:07.293Z,1412.47
2022-08-21T12:05:38.854Z,1423.22
2022-08-21T12:08:16.555Z,1410.22
2022-08-21T12:11:01.327Z,1408.03
2022-08-21T12:13:36.751Z,1406.50
2022-08-21T12:16:08.565Z,1386.03
2022-08-21T12:18:35.832Z,1387.43
2022-08-21T12:21:22.501Z,1405.10
2022-08-21T12:24:05.191Z,1412.93
2022-08-21T12:26:58.364Z,1420.97
2022-08-21T12:29:36.933Z,1398.65
2022-08-21T12:32:31.281Z,1414.32
2022-08-21T12:35:25.078Z,1425.93
2022-08-21T12:38:07.443Z,1408.78
2022-08-21T12:40:44.548Z,1413.43
2022-08-21T12:43:26.158Z,1423.43
2022-08-21T12:45:53.407Z,1419.43
2022-08-21T12:48:20.128Z,1413.00
2022-08-21T12:51:07.493Z,1414.07
2022-08-21T12:53:49.413Z,1398.57
2022-08-21T12:56:21.943Z,1413.22
2022-08-21T12:58:52.370Z,1432.55
2022-08-21T13:01:29.899Z,1396.40
2022-08-21T13:04:04.774Z,1376.97
2022-08-21T13:06:39.092Z,1423.10
2022-08-21T13:09:10.824Z,1388.43
2022-08-21T13:11:40.384Z,1424.15
2022-08-21T13:14:31.349Z,1409.28
2022-08-21T13:16:59.877Z,1411.50
2022-08-21T13:19:27.455Z,1415.72
2022-08-21T13:21:54.473Z,1375.35
2022-08-21T13:24:43.581Z,1427.30
2022-08-21T13:27:40.292Z,1431.45
2022-08-21T13:30:14.622Z,1418.22
2022-08-21T13:32:44.861Z,1425.10
2022-08-21T13:35:21.987Z,1394.97
2022-08-21T13:37:52.000Z,1398.57
2022-08-21T13:40:33.666Z,1418.13
2022-08-21T13:43:01.721Z,1406.65
2022-08-21T13:45:33.653Z,1422.22
2022-08-21T13:48:06.644Z,1426.10
2022-08-21T13:50:43.495Z,1414.97
2022-08-21T13:53:41.435Z,1413.82
2022-08-21T13:56:08.293Z,1414.75
2022-08-21T13:58:45.238Z,1413.55
2022-08-21T14:01:24.093Z,1399.13
2022-08-21T14:03:53.974Z,1405.43
2022-08-21T14:06:24.223Z,1416.40
2022-08-21T14:08:58.903Z,1404.10
2022-08-21T14:11:26.930Z,1400.07
2022-08-21T14:14:04.794Z,1409.05
2022-08-21T14:16:47.269Z,1412.65
2022-08-21T14:19:24.612Z,1414.60
2022-08-21T14:21:51.484Z,1417.85
2022-08-21T14:24:31.078Z,1419.85
2022-08-21T14:27:06.029Z,1411.85
2022-08-21T14:29:42.062Z,1408.45
2022-08-21T14:32:21.759Z,1427.30
